Шпаковское

Карта отелей и гостиниц, располагающихся рядом с аэропортом Шпаковское :

Шпаковское
Ставрополь
Ставропольский край 45° 6' 33.3612" N, 42° 6' 45.9612" E
Код аэродрома ИКАО
URMT
Код аэродрома RU
УРМТ
Координаты
N45.10927° E042.11277°
Превышение над уровнем моря
453
Основная полоса
07L/25R
Курс магнитный
068,4/248,4
Длина основной ВПП
2600
Ширина основной ВПП
48
Покрытие основной ВПП
Твёрдое (асфальтобетон)
Освещение ВПП
Постоянное
Тип: 
Аэродром
Класс аэродрома: 
Международный
Принадлежность: 
ГА
Статус: 
Действующий
Страна: 
Россия
Регион: 
Ставропольский край
Город: 
Ставрополь
Дополнительная информация: 
Оператор: нет данных. Аэродром совместного базирования (ФАВТ и ФСБ). Нкр.=(600)м. Военный индекс: XRMT / ЬРМТ.
Схемы аэропортов: 
Погода: 

Авиационная погода в Ставрополе

Регион: 
Погода METAR: 
URMT 170000Z 15004MPS CAVOK 15/06 Q1004 R07/010070 NOSIG RMK QFE713
Время наблюдения
2021-05-17T00:00:00Z
Температура C
15.0
Точка росы
6.0
Направление ветра
150
Скорость ветра (узлы)
8
Метео видимость
6.21
Явления погоды
Условия полета
VFR
Аэропорт подробнее: 

Найти трансфер

С помощью этой формы Вы можете найти трансфер из аэропорта Шпаковское в город, аэропорт или вокзал:

Карта места

Javascript is required to view this map.

Погода в аэропортах:

Авиационная погода в Абакане

Регион: 
Погода METAR: 
UNAA 170000Z 34002MPS 2700 BR SCT007 12/12 Q1011 R02/290155 TEMPO 0500 FG VV002 RMK QFE736
Время наблюдения
2021-05-17T00:00:00Z
Температура C
12.0
Точка росы
12.0
Направление ветра
340
Скорость ветра (узлы)
4
Метео видимость
1.68
Явления погоды
BR
Условия полета
IFR
Аэропорт подробнее: 

Авиационная погода в Куопио

Регион: 
Погода METAR: 
EFKU 162350Z AUTO VRB02KT 1500 BCFG NCD 11/11 Q1009
Время наблюдения
2021-05-16T23:50:00Z
Температура C
11.0
Точка росы
11.0
Направление ветра
0
Скорость ветра (узлы)
2
Метео видимость
0.93
Явления погоды
BCFG
Условия полета
LIFR

Авиационная погода в Куусамо

Регион: 
Погода METAR: 
EFKS 162350Z AUTO 11005KT 0700 R30/0800N FG VV002 03/03 Q1011
Время наблюдения
2021-05-16T23:50:00Z
Температура C
3.0
Точка росы
3.0
Направление ветра
110
Скорость ветра (узлы)
5
Метео видимость
0.43
Явления погоды
FG
Условия полета
LIFR

Авиационная погода в Ботсфьорде

Регион: 
Погода METAR: 
ENBS 162050Z 14017KT 9999 7000NE VCSH SCT008 BKN022 01/M01 Q1011
Время наблюдения
2021-05-16T20:50:00Z
Температура C
1.0
Точка росы
-1.0
Направление ветра
140
Скорость ветра (узлы)
17
Метео видимость
6.21
Явления погоды
VCSH
Условия полета
MVFR